Aeroporto :
LOGIN :

Iscrizione | Disclaimer

   EN    FR    IT 

 










Sommario :    VFR   VFR Marginale   IFR   IFR Intensivo   IFR Molto Intensivo
Visibilità : 
Base nubi : 
>= 8 km
>= 3000ft
5 / 8 km
1000 / 3000 ft
1500m / 5 km
500 / 1000 ft
800 / 1500m
200 / 500 ft
< 800m
< 200 ft
Simboli :   Temporali  Nebbia  Neve Forte  Precipitazioni Forti  Vento > 20 kt
SIGMETs :   Varie  Temporali  Ghiacco  Turbolenza  Onda orograficha  Ceneri Vulcaniche







- Altitudine del aeroporto : 45 ft
- Codice IATA : CEG
- Carte del aeroporto


EGNR - Hawarden Chester

ULTIMO METAR :
  • 190750Z VRB01KT 9999 FEW018 07/07 Q1025

METARs OBSOLETI :
  • 190720Z 14002KT 9999 FEW018 SCT022 07/07 Q1025
  • 190650Z 20002KT 9999 FEW010 SCT020 BKN048 07/06 Q1025
  • 190620Z 21002KT 9999 FEW010 SCT020 BKN048 07/06 Q1025

TAF TAF EGNR
Valido dal 19 a 06 ore il 19 a 15 ore UTC


190608Z 1906/1915 24006KT 9999 FEW008 BKN022
TEMPO 1906/1912 8000 -DZ FEW003 BKN008
Nessun NOTAM noto per questo aeroporto.



MetMap, La meteo Aeronautica in un colpo d'occhio ! - Copyright ORBIFLY Dicembre 2007 - Disclaimer

ORBIFLY MET'MAP TEAM :

Programmazione e sviluppo : Alexandra Zaïnal
Concezione e sviluppo : Baudouin d'Aumeries
Co-Programmazione e sviluppo : Marc-Olivier Méhu
Supporto tecnico e logistico : Manuel Goepfert
Aiuto per la traduzione : Arnaldo La Scala

Contatto : metmap@orbifly.com




FONTI E CREDITI :

   NOAA